Time;durP1;ratioP1;P1;durP2;ratioP2;P2;SDS_P1;SDS_P2;PMS_P1;PMS_P2;Temp;Humidity;BMP_temperature;BMP_pressure;BME280_temperature;BME280_humidity;BME280_pressure;Samples;Min_cycle;Max_cycle;Signal;HPM_P1;HPM_P2
2022/06/08 00:01:09;;;;;;;;;;;;;;;;;;5094888;28;20441;-75
2022/06/08 00:03:40;;;;;;;0.10;0.10;;;;;;;;;;5076864;28;19912;-76
2022/06/08 00:06:06;;;;;;;0.20;0.20;;;;;;;;;;5076610;28;20073;-75
2022/06/08 00:08:32;;;;;;;0.20;0.20;;;;;;;;;;5094565;28;20024;-74
2022/06/08 00:10:57;;;;;;;0.22;0.22;;;;;;;;;;5094317;28;20028;-74
2022/06/08 00:13:23;;;;;;;0.20;0.20;;;;;;;;;;5093789;28;20490;-75
2022/06/08 00:15:49;;;;;;;0.10;0.10;;;;;;;;;;5058883;28;20035;-75
2022/06/08 00:18:14;;;;;;;0.22;0.22;;;;;;;;;;5076312;28;20032;-73
2022/06/08 00:20:40;;;;;;;6.20;1.77;;;;;;;;;;5094399;28;20471;-74
2022/06/08 00:23:06;;;;;;;0.95;0.57;;;;;;;;;;5093305;28;20035;-74
2022/06/08 00:25:31;;;;;;;3.80;2.08;;;;;;;;;;5094389;28;20429;-75
2022/06/08 00:27:57;;;;;;;0.47;0.47;;;;;;;;;;5094392;28;20055;-74
2022/06/08 00:30:23;;;;;;;8.15;4.13;;;;;;;;;;5093864;28;20028;-75
2022/06/08 00:32:48;;;;;;;0.75;0.75;;;;;;;;;;5092866;28;20094;-76
2022/06/08 00:35:14;;;;;;;4.88;1.73;;;;;;;;;;5094346;28;20059;-76
2022/06/08 00:37:40;;;;;;;1.67;1.33;;;;;;;;;;5092825;28;20479;-76
2022/06/08 00:40:06;;;;;;;1.65;0.88;;;;;;;;;;5094128;28;20035;-76
2022/06/08 00:42:32;;;;;;;0.30;0.30;;;;;;;;;;5093803;28;20068;-77
2022/06/08 00:45:00;;;;;;;0.10;0.10;;;;;;;;;;5091424;28;20024;-75
2022/06/08 00:47:28;;;;;;;0.20;0.20;;;;;;;;;;5093896;28;20547;-76
2022/06/08 00:49:57;;;;;;;0.20;0.20;;;;;;;;;;5093901;28;20479;-75
2022/06/08 00:52:24;;;;;;;3.78;1.65;;;;;;;;;;5094187;28;20040;-75
2022/06/08 00:54:51;;;;;;;0.47;0.45;;;;;;;;;;5076054;28;20395;-76
2022/06/08 00:57:20;;;;;;;4.07;1.98;;;;;;;;;;5093856;28;20043;-76
2022/06/08 00:59:51;;;;;;;2.30;1.60;;;;;;;;;;5075486;28;20551;-77
2022/06/08 01:02:18;;;;;;;4.22;1.92;;;;;;;;;;5093931;28;20047;-77
2022/06/08 01:04:44;;;;;;;2.00;1.85;;;;;;;;;;5093558;28;20550;-77
2022/06/08 01:07:16;;;;;;;1.65;0.75;;;;;;;;;;5075557;28;20127;-75
2022/06/08 01:09:42;;;;;;;0.10;0.10;;;;;;;;;;5075555;28;20387;-76
2022/06/08 01:12:10;;;;;;;0.28;0.28;;;;;;;;;;5075343;28;20135;-76
2022/06/08 01:14:40;;;;;;;0.20;0.20;;;;;;;;;;5059577;28;20081;-76
2022/06/08 01:17:09;;;;;;;0.10;0.10;;;;;;;;;;5075440;28;20487;-75
2022/06/08 01:19:37;;;;;;;0.35;0.35;;;;;;;;;;5075577;28;20487;-77
2022/06/08 01:22:04;;;;;;;0.17;0.17;;;;;;;;;;5075682;28;20035;-77
2022/06/08 01:24:39;;;;;;;0.20;0.20;;;;;;;;;;5093292;28;20028;-76
2022/06/08 01:27:11;;;;;;;0.20;0.20;;;;;;;;;;5075226;28;20032;-77
2022/06/08 01:29:37;;;;;;;0.30;0.30;;;;;;;;;;5075254;28;20032;-76
2022/06/08 01:32:03;;;;;;;0.17;0.17;;;;;;;;;;5093671;28;20541;-78
2022/06/08 01:34:28;;;;;;;0.20;0.20;;;;;;;;;;5091485;28;20028;-77
2022/06/08 01:37:00;;;;;;;0.10;0.10;;;;;;;;;;5075286;28;20468;-77
2022/06/08 01:39:31;;;;;;;0.30;0.30;;;;;;;;;;5093182;28;20043;-76
2022/06/08 01:42:12;;;;;;;0.93;0.45;;;;;;;;;;5093466;28;20494;-78
2022/06/08 01:45:28;;;;;;;0.20;0.20;;;;;;;;;;5074637;28;20042;-76
2022/06/08 01:47:35;;;;;;;0.75;0.55;;;;;;;;;;5093166;28;20475;-77
2022/06/08 01:50:15;;;;;;;0.10;0.10;;;;;;;;;;5074894;28;20368;-76
2022/06/08 01:52:43;;;;;;;0.20;0.20;;;;;;;;;;5093144;28;20052;-75
2022/06/08 01:55:21;;;;;;;0.40;0.40;;;;;;;;;;5073881;28;20036;-75
2022/06/08 01:57:56;;;;;;;0.20;0.20;;;;;;;;;;5074920;28;20032;-75
2022/06/08 02:00:22;;;;;;;0.47;0.47;;;;;;;;;;5092775;28;20123;-77
2022/06/08 02:03:08;;;;;;;0.20;0.20;;;;;;;;;;5092914;28;20036;-76
2022/06/08 02:05:54;;;;;;;0.17;0.17;;;;;;;;;;5074515;28;20522;-75
2022/06/08 02:08:32;;;;;;;0.10;0.10;;;;;;;;;;5074714;28;20035;-76
2022/06/08 02:10:59;;;;;;;0.30;0.30;;;;;;;;;;5058204;28;20040;-76
2022/06/08 02:13:33;;;;;;;0.10;0.10;;;;;;;;;;5074557;28;20035;-76
2022/06/08 02:16:13;;;;;;;0.47;0.47;;;;;;;;;;5074715;28;20044;-76
2022/06/08 02:18:59;;;;;;;0.15;0.15;;;;;;;;;;5074644;28;20035;-77
2022/06/08 02:21:52;;;;;;;0.15;0.15;;;;;;;;;;5074324;28;20487;-76
2022/06/08 02:24:23;;;;;;;0.20;0.20;;;;;;;;;;5054218;28;20465;-77
2022/06/08 02:27:01;;;;;;;0.10;0.10;;;;;;;;;;5092465;28;20119;-75
2022/06/08 02:29:29;;;;;;;0.20;0.20;;;;;;;;;;5074230;28;20394;-75
2022/06/08 02:31:59;;;;;;;0.20;0.20;;;;;;;;;;5092961;28;20040;-76
2022/06/08 02:34:36;;;;;;;0.30;0.30;;;;;;;;;;5074425;28;20503;-77
2022/06/08 02:37:08;;;;;;;0.20;0.20;;;;;;;;;;5092530;28;20059;-77
2022/06/08 02:39:33;;;;;;;0.20;0.20;;;;;;;;;;5092817;28;20032;-76
2022/06/08 02:42:03;;;;;;;0.20;0.20;;;;;;;;;;5092123;28;20034;-75
2022/06/08 02:44:30;;;;;;;0.30;0.30;;;;;;;;;;5057820;28;20506;-75
2022/06/08 02:47:16;;;;;;;0.15;0.15;;;;;;;;;;5093774;28;20454;-75
2022/06/08 02:49:42;;;;;;;0.20;0.20;;;;;;;;;;5091959;28;20098;-77
2022/06/08 02:52:22;;;;;;;0.25;0.25;;;;;;;;;;5074196;28;20058;-75
2022/06/08 02:54:54;;;;;;;0.10;0.10;;;;;;;;;;5074028;28;20078;-76
2022/06/08 02:57:26;;;;;;;0.20;0.20;;;;;;;;;;5073972;28;20123;-76
2022/06/08 03:00:02;;;;;;;0.20;0.20;;;;;;;;;;5073897;28;20031;-76
2022/06/08 03:02:46;;;;;;;0.20;0.20;;;;;;;;;;5053898;28;20040;-76
2022/06/08 03:05:12;;;;;;;0.17;0.17;;;;;;;;;;5069968;28;20447;-75
2022/06/08 03:08:01;;;;;;;0.10;0.10;;;;;;;;;;5072482;28;20031;-74
2022/06/08 03:10:30;;;;;;;0.20;0.20;;;;;;;;;;5067729;28;20120;-75
2022/06/08 03:12:55;;;;;;;;;;;;;;;;;;5057120;28;20143;-75
2022/06/08 03:15:23;;;;;;;0.20;0.20;;;;;;;;;;5091526;28;20442;-74
2022/06/08 03:17:50;;;;;;;0.20;0.20;;;;;;;;;;5091436;28;20452;-76
2022/06/08 03:20:18;;;;;;;2.83;1.13;;;;;;;;;;5073014;28;20085;-76
2022/06/08 03:22:43;;;;;;;0.30;0.30;;;;;;;;;;5091307;28;20122;-75
2022/06/08 03:25:10;;;;;;;0.10;0.10;;;;;;;;;;5073056;28;20467;-75
2022/06/08 03:27:39;;;;;;;0.50;0.50;;;;;;;;;;5072997;28;20462;-72
2022/06/08 03:30:06;;;;;;;0.82;0.60;;;;;;;;;;5072608;28;20379;-74
2022/06/08 03:32:37;;;;;;;0.20;0.20;;;;;;;;;;5073310;28;20062;-75
2022/06/08 03:35:03;;;;;;;0.50;0.50;;;;;;;;;;5072813;28;20039;-76
2022/06/08 03:37:29;;;;;;;0.10;0.10;;;;;;;;;;5091206;28;20032;-74
2022/06/08 03:39:57;;;;;;;0.20;0.20;;;;;;;;;;5072469;28;20055;-75
2022/06/08 03:42:22;;;;;;;0.22;0.22;;;;;;;;;;5072189;28;20476;-73
2022/06/08 03:44:48;;;;;;;0.20;0.20;;;;;;;;;;5089985;28;20051;-75
2022/06/08 03:47:24;;;;;;;5.75;3.70;;;;;;;;;;5090464;28;20146;-76
2022/06/08 03:49:51;;;;;;;0.30;0.30;;;;;;;;;;5091150;28;20028;-76
2022/06/08 03:52:20;;;;;;;0.10;0.10;;;;;;;;;;5090864;28;20039;-75
2022/06/08 03:54:48;;;;;;;0.10;0.10;;;;;;;;;;5091252;28;20055;-74
2022/06/08 03:57:15;;;;;;;0.10;0.10;;;;;;;;;;5056244;28;20415;-75
2022/06/08 03:59:42;;;;;;;0.10;0.10;;;;;;;;;;5072918;28;20142;-75
2022/06/08 04:02:10;;;;;;;0.20;0.20;;;;;;;;;;5089468;28;20024;-72
2022/06/08 04:04:37;;;;;;;0.20;0.20;;;;;;;;;;5090940;28;20039;-75
2022/06/08 04:07:03;;;;;;;0.20;0.20;;;;;;;;;;5055980;28;20509;-74
2022/06/08 04:09:29;;;;;;;0.40;0.40;;;;;;;;;;5090403;28;20029;-75
2022/06/08 04:11:55;;;;;;;0.17;0.17;;;;;;;;;;5054860;28;20364;-72
2022/06/08 04:14:21;;;;;;;0.20;0.20;;;;;;;;;;5072605;28;20046;-76
2022/06/08 04:16:47;;;;;;;0.32;0.32;;;;;;;;;;5072787;28;20099;-76
2022/06/08 04:19:17;;;;;;;0.55;0.35;;;;;;;;;;5055422;28;20131;-75
2022/06/08 04:21:43;;;;;;;0.20;0.20;;;;;;;;;;5090066;28;20119;-74
2022/06/08 04:24:10;;;;;;;0.20;0.20;;;;;;;;;;5090438;28;20051;-76
2022/06/08 04:26:39;;;;;;;0.20;0.20;;;;;;;;;;5068885;28;20021;-76
2022/06/08 04:29:11;;;;;;;0.20;0.20;;;;;;;;;;5065986;28;20420;-77
2022/06/08 04:31:39;;;;;;;0.20;0.20;;;;;;;;;;5071962;28;20036;-74
2022/06/08 04:34:14;;;;;;;0.20;0.20;;;;;;;;;;5072088;28;20036;-74
2022/06/08 04:36:40;;;;;;;0.20;0.20;;;;;;;;;;5071991;28;20127;-75
2022/06/08 04:39:08;;;;;;;0.20;0.20;;;;;;;;;;5071237;28;20036;-75
2022/06/08 04:41:36;;;;;;;0.30;0.30;;;;;;;;;;5071596;28;20078;-74
2022/06/08 04:44:02;;;;;;;0.10;0.10;;;;;;;;;;5072453;28;20067;-74
2022/06/08 04:46:29;;;;;;;0.20;0.20;;;;;;;;;;5070525;28;20498;-75
2022/06/08 04:48:57;;;;;;;0.20;0.20;;;;;;;;;;5072015;28;20035;-75
2022/06/08 04:51:25;;;;;;;0.20;0.20;;;;;;;;;;5090266;28;20364;-75
2022/06/08 04:53:52;;;;;;;6.35;1.88;;;;;;;;;;5071111;28;20126;-77
2022/06/08 04:56:18;;;;;;;0.10;0.10;;;;;;;;;;5053838;28;20520;-77
2022/06/08 04:58:47;;;;;;;0.10;0.10;;;;;;;;;;5054353;28;20437;-78
2022/06/08 05:01:13;;;;;;;0.10;0.10;;;;;;;;;;5068848;28;20277;-75
2022/06/08 05:03:40;;;;;;;0.20;0.20;;;;;;;;;;5070258;28;20055;-76
2022/06/08 05:06:06;;;;;;;0.20;0.20;;;;;;;;;;5088414;28;20425;-75
2022/06/08 05:08:34;;;;;;;0.20;0.20;;;;;;;;;;5089332;28;20643;-76
2022/06/08 05:11:04;;;;;;;0.30;0.30;;;;;;;;;;5052892;28;20161;-76
2022/06/08 05:13:31;;;;;;;0.20;0.20;;;;;;;;;;5071013;28;20270;-75
2022/06/08 05:16:04;;;;;;;0.20;0.20;;;;;;;;;;5071640;28;20044;-76
2022/06/08 05:18:30;;;;;;;0.20;0.20;;;;;;;;;;5071431;28;20165;-77
2022/06/08 05:20:59;;;;;;;0.20;0.20;;;;;;;;;;5070809;28;20450;-76
2022/06/08 05:23:30;;;;;;;0.20;0.20;;;;;;;;;;5070383;28;20032;-76
2022/06/08 05:25:56;;;;;;;0.30;0.30;;;;;;;;;;5071635;28;20494;-75
2022/06/08 05:28:23;;;;;;;0.20;0.20;;;;;;;;;;5071096;28;20020;-76
2022/06/08 05:30:56;;;;;;;0.90;0.90;;;;;;;;;;5054031;28;20043;-75
2022/06/08 05:33:23;;;;;;;0.40;0.40;;;;;;;;;;5071243;28;20036;-74
2022/06/08 05:35:49;;;;;;;0.20;0.20;;;;;;;;;;5053977;28;20513;-76
2022/06/08 05:38:17;;;;;;;0.20;0.20;;;;;;;;;;5070822;28;20043;-76
2022/06/08 05:40:43;;;;;;;0.60;0.60;;;;;;;;;;5070080;28;20032;-73
2022/06/08 05:43:13;;;;;;;0.60;0.60;;;;;;;;;;5089279;28;20395;-74
2022/06/08 05:45:43;;;;;;;0.20;0.20;;;;;;;;;;5071143;28;20044;-75
2022/06/08 05:48:09;;;;;;;0.20;0.20;;;;;;;;;;5088812;28;20032;-75
2022/06/08 05:50:38;;;;;;;0.50;0.50;;;;;;;;;;5070804;28;20452;-73
2022/06/08 05:53:08;;;;;;;0.28;0.28;;;;;;;;;;5069178;28;20077;-76
2022/06/08 05:55:34;;;;;;;0.30;0.30;;;;;;;;;;5071513;28;20040;-75
2022/06/08 05:57:59;;;;;;;0.20;0.20;;;;;;;;;;5089303;28;20020;-75
2022/06/08 06:00:28;;;;;;;0.30;0.30;;;;;;;;;;5069239;28;20498;-76
2022/06/08 06:02:54;;;;;;;0.20;0.20;;;;;;;;;;5070819;28;20044;-77
2022/06/08 06:05:21;;;;;;;0.20;0.20;;;;;;;;;;5089053;28;20095;-76
2022/06/08 06:07:47;;;;;;;0.20;0.20;;;;;;;;;;5070895;28;20028;-76
2022/06/08 06:10:43;;;;;;;0.20;0.20;;;;;;;;;;5075336;28;20047;-75
2022/06/08 06:13:10;;;;;;;0.20;0.20;;;;;;;;;;5070947;28;20426;-74
2022/06/08 06:15:42;;;;;;;0.20;0.20;;;;;;;;;;5089641;28;20546;-76
2022/06/08 06:18:09;;;;;;;0.20;0.20;;;;;;;;;;5072333;28;20035;-76
2022/06/08 06:20:37;;;;;;;0.20;0.20;;;;;;;;;;5056668;28;20020;-76
2022/06/08 06:23:17;;;;;;;0.95;0.95;;;;;;;;;;5073711;28;20105;-77
2022/06/08 06:26:03;;;;;;;0.20;0.20;;;;;;;;;;5088029;28;20048;-74
2022/06/08 06:28:51;;;;;;;0.20;0.20;;;;;;;;;;5086060;28;20082;-73
2022/06/08 06:31:51;;;;;;;0.20;0.20;;;;;;;;;;5053782;28;20126;-75
2022/06/08 06:34:21;;;;;;;0.20;0.20;;;;;;;;;;5069559;28;20039;-75
2022/06/08 06:36:52;;;;;;;0.40;0.40;;;;;;;;;;5070239;28;20038;-74
2022/06/08 06:39:17;;;;;;;0.20;0.20;;;;;;;;;;5088532;28;20094;-76
2022/06/08 06:41:44;;;;;;;0.20;0.20;;;;;;;;;;5082190;28;20050;-76
2022/06/08 06:44:11;;;;;;;0.30;0.30;;;;;;;;;;5062009;28;20032;-73
2022/06/08 06:46:49;;;;;;;0.20;0.20;;;;;;;;;;5074858;28;20036;-75
2022/06/08 06:49:28;;;;;;;0.30;0.30;;;;;;;;;;5071958;28;20040;-74
2022/06/08 06:51:54;;;;;;;0.32;0.32;;;;;;;;;;5053759;28;20516;-74
2022/06/08 06:54:21;;;;;;;0.20;0.20;;;;;;;;;;5053631;28;20074;-73
2022/06/08 06:56:48;;;;;;;0.30;0.30;;;;;;;;;;5053734;28;20176;-75
2022/06/08 06:59:21;;;;;;;0.20;0.20;;;;;;;;;;5072085;28;20028;-74
2022/06/08 07:01:47;;;;;;;0.20;0.20;;;;;;;;;;5055697;28;20435;-75
2022/06/08 07:04:13;;;;;;;0.20;0.20;;;;;;;;;;5064803;28;20418;-73
2022/06/08 07:06:40;;;;;;;1.25;1.15;;;;;;;;;;5073411;28;20027;-75
2022/06/08 07:09:06;;;;;;;0.30;0.30;;;;;;;;;;5073437;28;20040;-76
2022/06/08 07:11:40;;;;;;;0.20;0.20;;;;;;;;;;5073509;28;20032;-73
2022/06/08 07:14:18;;;;;;;0.30;0.30;;;;;;;;;;5091643;28;20047;-74
2022/06/08 07:16:49;;;;;;;0.50;0.50;;;;;;;;;;5067107;28;20427;-75
2022/06/08 07:19:19;;;;;;;0.30;0.30;;;;;;;;;;5059024;28;20048;-74
2022/06/08 07:21:45;;;;;;;0.20;0.20;;;;;;;;;;5053003;28;20040;-73
2022/06/08 07:24:23;;;;;;;0.20;0.20;;;;;;;;;;5071044;28;20111;-75
2022/06/08 07:26:49;;;;;;;0.30;0.30;;;;;;;;;;5071179;28;20490;-73
2022/06/08 07:29:15;;;;;;;1.38;0.52;;;;;;;;;;5053448;28;20079;-77
2022/06/08 07:31:41;;;;;;;0.20;0.20;;;;;;;;;;5071212;28;20167;-74
2022/06/08 07:34:07;;;;;;;0.40;0.40;;;;;;;;;;5071131;28;20115;-74
2022/06/08 07:36:32;;;;;;;0.20;0.20;;;;;;;;;;5053261;28;20032;-74
2022/06/08 07:38:58;;;;;;;0.30;0.30;;;;;;;;;;5070941;28;20044;-74
2022/06/08 07:41:25;;;;;;;0.30;0.30;;;;;;;;;;5070914;28;20032;-74
2022/06/08 07:43:50;;;;;;;0.30;0.30;;;;;;;;;;5071108;28;20028;-73
2022/06/08 07:46:19;;;;;;;1.15;1.15;;;;;;;;;;5072249;28;20048;-75
2022/06/08 07:51:28;;;;;;;11.40;2.40;;;;;;;;;;5088454;28;20127;-76
2022/06/08 07:53:54;;;;;;;0.30;0.30;;;;;;;;;;5091138;28;20197;-77
2022/06/08 07:56:20;;;;;;;2.25;2.05;;;;;;;;;;5088835;28;20044;-76
2022/06/08 07:58:48;;;;;;;0.22;0.22;;;;;;;;;;5090908;28;20028;-74
2022/06/08 08:01:14;;;;;;;0.40;0.40;;;;;;;;;;5073142;28;20040;-75
2022/06/08 08:03:39;;;;;;;0.30;0.30;;;;;;;;;;5090604;28;20031;-77
2022/06/08 08:06:06;;;;;;;0.30;0.30;;;;;;;;;;5088680;28;20028;-76
2022/06/08 08:08:32;;;;;;;0.35;0.35;;;;;;;;;;5082182;28;20396;-77
2022/06/08 08:10:58;;;;;;;0.45;0.45;;;;;;;;;;5070372;28;20039;-76
2022/06/08 08:13:24;;;;;;;0.40;0.40;;;;;;;;;;5081400;28;20194;-78
2022/06/08 08:15:51;;;;;;;0.30;0.30;;;;;;;;;;5073570;28;20075;-76
2022/06/08 08:18:17;;;;;;;0.30;0.30;;;;;;;;;;5070374;28;20121;-74
2022/06/08 08:20:43;;;;;;;0.30;0.30;;;;;;;;;;5070445;28;20043;-76
2022/06/08 08:23:09;;;;;;;0.38;0.38;;;;;;;;;;5070259;28;20033;-73
2022/06/08 08:25:35;;;;;;;0.30;0.30;;;;;;;;;;5070607;28;20098;-75
2022/06/08 08:28:01;;;;;;;4.90;4.68;;;;;;;;;;5061665;28;20104;-76
2022/06/08 08:30:28;;;;;;;0.30;0.30;;;;;;;;;;5066902;28;20498;-74
2022/06/08 08:32:54;;;;;;;0.30;0.30;;;;;;;;;;5070089;28;20035;-74
2022/06/08 08:35:21;;;;;;;0.30;0.30;;;;;;;;;;5071797;28;20036;-77
2022/06/08 08:37:47;;;;;;;0.30;0.30;;;;;;;;;;5077949;28;20528;-79
2022/06/08 08:40:34;;;;;;;0.68;0.68;;;;;;;;;;5051860;28;20107;-78
2022/06/08 08:43:01;;;;;;;0.70;0.70;;;;;;;;;;5038171;28;20052;-76
2022/06/08 08:45:27;;;;;;;0.77;0.77;;;;;;;;;;5069648;28;20119;-76
2022/06/08 08:48:09;;;;;;;0.40;0.40;;;;;;;;;;5068574;28;20032;-75
2022/06/08 08:50:40;;;;;;;0.30;0.30;;;;;;;;;;5068943;28;20036;-76
2022/06/08 08:53:11;;;;;;;1.10;1.08;;;;;;;;;;5069294;28;20029;-76
2022/06/08 08:55:39;;;;;;;0.38;0.38;;;;;;;;;;5069651;28;20020;-76
2022/06/08 08:58:16;;;;;;;0.30;0.30;;;;;;;;;;5051228;28;20119;-78
2022/06/08 09:00:41;;;;;;;0.30;0.30;;;;;;;;;;5051678;28;20033;-73
2022/06/08 09:03:28;;;;;;;0.40;0.40;;;;;;;;;;5051601;28;20036;-76
2022/06/08 09:05:56;;;;;;;0.35;0.35;;;;;;;;;;5068784;28;20036;-76
2022/06/08 09:08:22;;;;;;;0.40;0.40;;;;;;;;;;5051049;28;20093;-75
2022/06/08 09:10:49;;;;;;;0.40;0.40;;;;;;;;;;5069310;28;20039;-76
2022/06/08 09:13:22;;;;;;;0.40;0.40;;;;;;;;;;5051724;28;20519;-77
2022/06/08 09:15:57;;;;;;;4.10;1.15;;;;;;;;;;5069295;28;20110;-75
2022/06/08 09:18:40;;;;;;;0.40;0.40;;;;;;;;;;5068797;28;20036;-77
2022/06/08 09:21:24;;;;;;;7.00;0.75;;;;;;;;;;5069248;28;20094;-77
2022/06/08 09:23:52;;;;;;;0.55;0.50;;;;;;;;;;5069195;28;20041;-78
2022/06/08 09:26:27;;;;;;;1.17;1.05;;;;;;;;;;5069101;28;20028;-76
2022/06/08 09:29:11;;;;;;;1.30;1.20;;;;;;;;;;5070871;28;20023;-77
2022/06/08 09:31:38;;;;;;;0.30;0.30;;;;;;;;;;5080917;28;20114;-79
2022/06/08 09:34:24;;;;;;;1.55;1.13;;;;;;;;;;5070970;28;20548;-78
2022/06/08 09:37:09;;;;;;;1.42;0.93;;;;;;;;;;5089560;28;20094;-76
2022/06/08 09:39:34;;;;;;;9.05;2.45;;;;;;;;;;5087668;28;20052;-78
2022/06/08 09:42:03;;;;;;;2.15;0.65;;;;;;;;;;5070052;28;20113;-73
2022/06/08 09:44:35;;;;;;;1.07;0.97;;;;;;;;;;5088679;28;20386;-74
2022/06/08 09:52:35;;;;;;;6.72;1.45;;;;;;;;;;5088258;28;20376;-75
2022/06/08 09:55:08;;;;;;;0.75;0.75;;;;;;;;;;5088530;28;20028;-79
2022/06/08 09:57:33;;;;;;;0.50;0.50;;;;;;;;;;5064838;28;20038;-77
2022/06/08 10:00:10;;;;;;;1.27;0.95;;;;;;;;;;5065682;28;20031;-80
2022/06/08 10:03:00;;;;;;;1.50;0.63;;;;;;;;;;5082772;28;20392;-79
2022/06/08 10:05:44;;;;;;;0.90;0.60;;;;;;;;;;5086917;28;20049;-79
2022/06/08 10:08:14;;;;;;;2.22;0.68;;;;;;;;;;5084916;28;20036;-79
2022/06/08 10:10:39;;;;;;;1.40;0.70;;;;;;;;;;5086805;28;20031;-79
2022/06/08 10:13:14;;;;;;;0.32;0.32;;;;;;;;;;5086890;28;20102;-80
2022/06/08 10:15:42;;;;;;;2.90;0.88;;;;;;;;;;5051436;28;20410;-78
2022/06/08 10:18:17;;;;;;;0.60;0.60;;;;;;;;;;5086485;28;20111;-81
2022/06/08 10:20:48;;;;;;;2.97;1.60;;;;;;;;;;5083150;28;20115;-75
2022/06/08 10:23:20;;;;;;;12.43;1.90;;;;;;;;;;5070327;28;20028;-81
2022/06/08 10:25:47;;;;;;;3.00;1.27;;;;;;;;;;5080792;28;20036;-79
2022/06/08 10:28:28;;;;;;;3.15;0.82;;;;;;;;;;5086381;28;20028;-82
2022/06/08 10:31:06;;;;;;;0.52;0.52;;;;;;;;;;5089178;28;20054;-80
2022/06/08 10:33:33;;;;;;;;;;;;;;;;;;5088707;28;20040;-80
2022/06/08 10:35:59;;;;;;;1.38;0.82;;;;;;;;;;5086980;28;19918;-81
2022/06/08 10:38:25;;;;;;;0.95;0.52;;;;;;;;;;5088378;28;20028;-82
2022/06/08 10:40:58;;;;;;;0.22;0.22;;;;;;;;;;5088108;28;20089;-81
2022/06/08 10:43:26;;;;;;;4.63;1.33;;;;;;;;;;5087119;28;20043;-82
2022/06/08 10:45:53;;;;;;;0.47;0.40;;;;;;;;;;5087944;28;20392;-81
2022/06/08 10:48:23;;;;;;;3.33;1.08;;;;;;;;;;5085979;28;20067;-79
2022/06/08 10:51:04;;;;;;;2.05;0.93;;;;;;;;;;5085416;28;20040;-77
2022/06/08 10:56:23;;;;;;;3.00;1.60;;;;;;;;;;5091026;28;20036;-80
2022/06/08 10:58:55;;;;;;;5.20;1.02;;;;;;;;;;5091431;28;20032;-80
2022/06/08 11:01:36;;;;;;;8.50;2.17;;;;;;;;;;5089236;28;20063;-79
2022/06/08 11:04:02;;;;;;;9.95;1.67;;;;;;;;;;5086745;28;20043;-82
2022/06/08 11:06:45;;;;;;;1.50;1.15;;;;;;;;;;5088710;28;20027;-81
2022/06/08 11:09:39;;;;;;;1.95;0.93;;;;;;;;;;5088484;28;20044;-82
2022/06/08 11:12:11;;;;;;;0.30;0.30;;;;;;;;;;5057662;28;20450;-81
2022/06/08 11:14:43;;;;;;;1.30;0.40;;;;;;;;;;5073144;28;20040;-82
2022/06/08 11:17:10;;;;;;;0.47;0.47;;;;;;;;;;5086942;28;20042;-80
2022/06/08 11:19:36;;;;;;;10.38;2.28;;;;;;;;;;5074145;28;20036;-81
2022/06/08 11:22:10;;;;;;;1.48;0.88;;;;;;;;;;5088529;28;20439;-82
2022/06/08 11:24:42;;;;;;;0.60;0.57;;;;;;;;;;5081681;28;20051;-80
2022/06/08 11:27:10;;;;;;;1.80;1.17;;;;;;;;;;5088525;28;20081;-81
2022/06/08 11:29:45;;;;;;;8.50;2.42;;;;;;;;;;5089262;28;20483;-80
2022/06/08 11:32:39;;;;;;;14.82;1.58;;;;;;;;;;5070916;28;20506;-79
2022/06/08 11:35:23;;;;;;;2.20;0.73;;;;;;;;;;5069013;28;20063;-82
2022/06/08 11:37:57;;;;;;;3.08;0.95;;;;;;;;;;5078603;28;20110;-82
2022/06/08 11:40:33;;;;;;;3.15;1.50;;;;;;;;;;5105820;28;20039;-75
2022/06/08 11:43:13;;;;;;;1.80;1.55;;;;;;;;;;5108398;28;20103;-77
2022/06/08 11:45:56;;;;;;;2.50;1.30;;;;;;;;;;5092387;28;20067;-78
2022/06/08 11:48:22;;;;;;;0.47;0.43;;;;;;;;;;5089262;28;20039;-75
2022/06/08 11:50:49;;;;;;;2.42;1.50;;;;;;;;;;5079698;28;20029;-82
2022/06/08 11:53:17;;;;;;;8.18;0.88;;;;;;;;;;5070243;28;20031;-81
2022/06/08 11:56:03;;;;;;;2.20;0.65;;;;;;;;;;5090927;28;20036;-80
2022/06/08 11:58:29;;;;;;;0.82;0.60;;;;;;;;;;5070392;28;20068;-80
2022/06/08 12:00:57;;;;;;;1.50;0.82;;;;;;;;;;5082163;28;20429;-80
2022/06/08 12:03:42;;;;;;;2.97;1.75;;;;;;;;;;5068693;28;20036;-80
2022/06/08 12:06:17;;;;;;;1.88;1.25;;;;;;;;;;5052378;28;20036;-81
2022/06/08 12:08:49;;;;;;;2.65;0.65;;;;;;;;;;5084958;28;20070;-81
2022/06/08 12:11:16;;;;;;;3.30;1.48;;;;;;;;;;5085816;28;20040;-80
2022/06/08 12:13:56;;;;;;;1.15;0.98;;;;;;;;;;5055139;28;20078;-83
2022/06/08 12:16:24;;;;;;;7.43;1.35;;;;;;;;;;5083636;28;20037;-81
2022/06/08 12:19:00;;;;;;;1.17;0.60;;;;;;;;;;5079754;28;20081;-82
2022/06/08 12:21:26;;;;;;;3.80;1.60;;;;;;;;;;5068705;28;20036;-80
2022/06/08 12:23:54;;;;;;;3.10;1.35;;;;;;;;;;5086003;28;20050;-80
2022/06/08 12:26:21;;;;;;;3.50;1.10;;;;;;;;;;5089596;28;20032;-76
2022/06/08 12:28:49;;;;;;;0.40;0.40;;;;;;;;;;5088388;28;20285;-80
2022/06/08 12:31:25;;;;;;;6.65;1.30;;;;;;;;;;5050841;28;20024;-79
2022/06/08 12:33:50;;;;;;;1.85;1.20;;;;;;;;;;5086935;28;20110;-78
2022/06/08 12:36:21;;;;;;;3.47;1.45;;;;;;;;;;5088550;28;20081;-80
2022/06/08 12:39:05;;;;;;;7.93;2.42;;;;;;;;;;5081674;28;20036;-79
2022/06/08 12:41:40;;;;;;;3.63;1.27;;;;;;;;;;5070674;28;20396;-78
2022/06/08 12:44:07;;;;;;;0.73;0.55;;;;;;;;;;5050081;28;20045;-77
2022/06/08 12:46:34;;;;;;;1.65;0.70;;;;;;;;;;5051661;28;20423;-77
2022/06/08 12:49:14;;;;;;;18.73;10.80;;;;;;;;;;5052473;28;20036;-78
2022/06/08 12:51:48;;;;;;;1.65;1.15;;;;;;;;;;5072626;28;20024;-80
2022/06/08 12:54:25;;;;;;;4.18;1.48;;;;;;;;;;5079715;28;20059;-81
2022/06/08 12:56:52;;;;;;;1.25;0.68;;;;;;;;;;5078841;28;20028;-82
2022/06/08 12:59:18;;;;;;;6.43;1.70;;;;;;;;;;5061401;28;20039;-83
2022/06/08 13:01:44;;;;;;;1.92;1.15;;;;;;;;;;5081156;28;20069;-77
2022/06/08 13:04:15;;;;;;;6.53;1.55;;;;;;;;;;5078679;28;20537;-79
2022/06/08 13:06:40;;;;;;;3.92;0.98;;;;;;;;;;5055479;28;20036;-80
2022/06/08 13:09:09;;;;;;;9.32;2.13;;;;;;;;;;5051927;28;20041;-80
2022/06/08 13:11:34;;;;;;;0.20;0.20;;;;;;;;;;5051571;28;20040;-77
2022/06/08 13:14:00;;;;;;;5.22;1.38;;;;;;;;;;5055985;28;20032;-81
2022/06/08 13:16:29;;;;;;;2.38;0.95;;;;;;;;;;5072606;28;20024;-81
2022/06/08 13:18:55;;;;;;;6.75;1.77;;;;;;;;;;5068950;28;20048;-75
2022/06/08 13:21:21;;;;;;;3.53;1.38;;;;;;;;;;5082501;28;20032;-78
2022/06/08 13:23:47;;;;;;;6.60;1.23;;;;;;;;;;5084389;28;20032;-75
2022/06/08 13:26:21;;;;;;;6.03;1.73;;;;;;;;;;5071533;28;20039;-80
2022/06/08 13:28:47;;;;;;;1.60;0.90;;;;;;;;;;5079498;28;20368;-80
2022/06/08 13:31:12;;;;;;;1.70;0.70;;;;;;;;;;5089983;28;20130;-80
2022/06/08 13:33:56;;;;;;;1.38;0.68;;;;;;;;;;5082966;28;20493;-80
2022/06/08 13:36:25;;;;;;;5.35;1.50;;;;;;;;;;5070823;28;20036;-75
2022/06/08 13:38:52;;;;;;;0.63;0.50;;;;;;;;;;5051514;28;20472;-82
2022/06/08 13:41:18;;;;;;;2.10;0.75;;;;;;;;;;5069521;28;20430;-78
2022/06/08 13:43:44;;;;;;;0.88;0.55;;;;;;;;;;5069301;28;20079;-79
2022/06/08 13:46:18;;;;;;;1.77;0.50;;;;;;;;;;5068679;28;20118;-79
2022/06/08 13:48:43;;;;;;;2.38;0.50;;;;;;;;;;5051095;28;20029;-82
2022/06/08 13:51:09;;;;;;;2.35;0.95;;;;;;;;;;5087901;28;20379;-81
2022/06/08 13:53:34;;;;;;;1.75;0.95;;;;;;;;;;5071499;28;20447;-80
2022/06/08 13:56:01;;;;;;;4.20;1.15;;;;;;;;;;5069051;28;20077;-75
2022/06/08 13:58:26;;;;;;;1.80;0.90;;;;;;;;;;5088766;28;20071;-83
2022/06/08 14:00:54;;;;;;;4.70;1.52;;;;;;;;;;5082672;28;20056;-79
2022/06/08 14:03:23;;;;;;;5.30;0.95;;;;;;;;;;5064317;28;20048;-82
2022/06/08 14:14:06;;;;;;;5.18;1.05;;;;;;;;;;5083723;28;20032;-82
2022/06/08 14:16:31;;;;;;;3.47;1.27;;;;;;;;;;5084828;28;20039;-80
2022/06/08 14:18:58;;;;;;;3.95;2.03;;;;;;;;;;5086407;28;20024;-80
2022/06/08 14:21:24;;;;;;;3.63;1.55;;;;;;;;;;5070662;28;20036;-76
2022/06/08 14:23:54;;;;;;;5.25;1.83;;;;;;;;;;5087614;28;20115;-78
2022/06/08 14:26:24;;;;;;;10.02;2.00;;;;;;;;;;5086049;28;20056;-77
2022/06/08 14:28:51;;;;;;;6.60;2.10;;;;;;;;;;5085739;28;20031;-77
2022/06/08 14:31:19;;;;;;;8.93;0.95;;;;;;;;;;5087193;28;20024;-79
2022/06/08 14:33:44;;;;;;;2.42;0.95;;;;;;;;;;5085874;28;20043;-77
2022/06/08 14:36:12;;;;;;;6.63;1.15;;;;;;;;;;5085484;28;20110;-77
2022/06/08 14:38:38;;;;;;;7.45;1.80;;;;;;;;;;5067220;28;20047;-79
2022/06/08 14:41:03;;;;;;;2.55;1.40;;;;;;;;;;5085355;28;20028;-80
2022/06/08 14:43:29;;;;;;;6.47;1.60;;;;;;;;;;5084783;28;20418;-78
2022/06/08 14:45:56;;;;;;;7.60;1.80;;;;;;;;;;5085635;28;20036;-76
2022/06/08 14:48:24;;;;;;;3.03;0.85;;;;;;;;;;5079400;28;20476;-75
2022/06/08 14:50:51;;;;;;;4.68;1.65;;;;;;;;;;5052632;28;20119;-78
2022/06/08 14:53:18;;;;;;;4.93;1.60;;;;;;;;;;5048786;28;20043;-77
2022/06/08 14:58:29;;;;;;;7.32;2.33;;;;;;;;;;5084514;28;20028;-80
2022/06/08 15:00:56;;;;;;;6.88;2.15;;;;;;;;;;5085951;28;20040;-78
2022/06/08 15:03:23;;;;;;;15.88;1.55;;;;;;;;;;5088693;28;20039;-81
2022/06/08 15:05:50;;;;;;;3.55;1.48;;;;;;;;;;5090578;28;20077;-78
2022/06/08 15:08:18;;;;;;;4.80;1.77;;;;;;;;;;5090369;28;20040;-78
2022/06/08 15:13:31;;;;;;;4.32;1.73;;;;;;;;;;5088852;28;20036;-78
2022/06/08 15:16:00;;;;;;;6.57;1.27;;;;;;;;;;5090434;28;20467;-78
2022/06/08 15:18:26;;;;;;;4.25;1.48;;;;;;;;;;5088856;28;20043;-79
2022/06/08 15:20:52;;;;;;;9.25;2.67;;;;;;;;;;5087723;28;20642;-80
2022/06/08 15:23:17;;;;;;;4.63;1.38;;;;;;;;;;5088976;28;20073;-79
2022/06/08 15:25:45;;;;;;;0.25;0.25;;;;;;;;;;5090143;28;20059;-78